Time;durP1;ratioP1;P1;durP2;ratioP2;P2;SDS_P1;SDS_P2;PMS_P1;PMS_P2;Temp;Humidity;BMP_temperature;BMP_pressure;BME280_temperature;BME280_humidity;BME280_pressure;Samples;Min_cycle;Max_cycle;Signal;HPM_P1;HPM_P2
2021/04/04 00:02:12;;;;;;;13.05;3.70;;;6.40;73.40;;;;;;5071368;28;20547;-59
2021/04/04 00:04:37;;;;;;;8.77;3.65;;;6.40;75.80;;;;;;5052525;28;20058;-58
2021/04/04 00:07:03;;;;;;;9.02;3.63;;;6.40;75.40;;;;;;5070843;28;20469;-56
2021/04/04 00:09:28;;;;;;;8.55;3.30;;;6.30;75.40;;;;;;5070952;28;20033;-58
2021/04/04 00:11:54;;;;;;;7.18;3.47;;;6.30;76.30;;;;;;5070798;28;20128;-59
2021/04/04 00:14:19;;;;;;;5.32;3.40;;;6.30;76.80;;;;;;5070147;28;20448;-57
2021/04/04 00:16:45;;;;;;;8.60;3.67;;;6.30;77.00;;;;;;5070761;28;20412;-59
2021/04/04 00:19:11;;;;;;;6.72;3.53;;;6.20;77.40;;;;;;5068682;28;20032;-58
2021/04/04 00:21:36;;;;;;;4.72;3.50;;;6.20;77.80;;;;;;5052795;28;20390;-57
2021/04/04 00:24:07;;;;;;;7.07;3.58;;;6.10;78.20;;;;;;5070096;28;20028;-59
2021/04/04 00:26:33;;;;;;;7.22;3.45;;;6.10;77.90;;;;;;5070748;28;20063;-59
2021/04/04 00:28:58;;;;;;;9.77;3.80;;;6.10;77.70;;;;;;5070582;28;20052;-58
2021/04/04 00:31:24;;;;;;;4.57;3.20;;;6.10;77.60;;;;;;5052887;28;20028;-59
2021/04/04 00:33:49;;;;;;;7.90;3.75;;;6.10;77.50;;;;;;5069979;28;20028;-57
2021/04/04 00:36:15;;;;;;;8.73;4.82;;;6.10;77.40;;;;;;5052772;28;20021;-57
2021/04/04 00:38:41;;;;;;;8.45;3.90;;;6.10;76.70;;;;;;5070548;28;20028;-57
2021/04/04 00:41:06;;;;;;;7.18;3.70;;;6.10;76.70;;;;;;5070569;28;20367;-57
2021/04/04 00:43:32;;;;;;;6.07;3.63;;;6.10;77.20;;;;;;5069987;28;20631;-58
2021/04/04 00:45:57;;;;;;;7.40;4.65;;;6.00;79.70;;;;;;5052806;28;20036;-57
2021/04/04 00:48:23;;;;;;;4.82;3.50;;;5.90;79.60;;;;;;5052656;28;20031;-56
2021/04/04 00:50:48;;;;;;;5.75;3.85;;;5.90;77.80;;;;;;5052326;28;20032;-58
2021/04/04 00:53:14;;;;;;;10.93;4.22;;;5.90;77.10;;;;;;5069495;28;20083;-55
2021/04/04 00:55:40;;;;;;;6.30;3.70;;;5.90;77.20;;;;;;5070300;28;20389;-58
2021/04/04 00:58:06;;;;;;;5.72;3.17;;;5.80;77.00;;;;;;5070405;28;20040;-57
2021/04/04 01:00:33;;;;;;;10.88;3.50;;;5.90;76.90;;;;;;5070252;28;20031;-56
2021/04/04 01:02:59;;;;;;;8.50;4.07;;;5.80;76.40;;;;;;5051661;28;20024;-57
2021/04/04 01:05:34;;;;;;;7.75;3.88;;;5.80;75.70;;;;;;5070471;28;20406;-56
2021/04/04 01:08:00;;;;;;;13.40;4.65;;;5.70;76.50;;;;;;5070378;28;20460;-56
2021/04/04 01:10:32;;;;;;;7.70;3.95;;;5.60;75.80;;;;;;5070446;28;20033;-56
2021/04/04 01:13:22;;;;;;;8.70;3.90;;;5.70;75.00;;;;;;5069364;28;20017;-58
2021/04/04 01:15:53;;;;;;;8.95;4.32;;;5.80;74.00;;;;;;5070419;28;20393;-59
2021/04/04 01:18:28;;;;;;;7.57;4.50;;;5.70;73.80;;;;;;5051081;28;20020;-58
2021/04/04 01:20:57;;;;;;;12.43;4.75;;;5.60;74.70;;;;;;5070413;28;20394;-60
2021/04/04 01:23:41;;;;;;;8.93;4.82;;;5.50;75.60;;;;;;5069634;28;20394;-56
2021/04/04 01:26:33;;;;;;;11.20;4.55;;;5.40;76.40;;;;;;5070585;28;20425;-57
2021/04/04 01:28:59;;;;;;;6.45;4.03;;;5.40;77.20;;;;;;5052384;28;20066;-57
2021/04/04 01:31:26;;;;;;;8.65;4.32;;;5.40;77.60;;;;;;5055015;28;20339;-56
2021/04/04 01:33:54;;;;;;;8.30;4.53;;;5.40;77.30;;;;;;5055609;28;20078;-58
2021/04/04 01:36:21;;;;;;;8.57;4.55;;;5.40;76.60;;;;;;5074300;28;20502;-58
2021/04/04 01:38:47;;;;;;;9.82;3.97;;;5.40;76.90;;;;;;5055853;28;20039;-58
2021/04/04 01:41:23;;;;;;;6.35;3.95;;;5.30;77.50;;;;;;5055882;28;20025;-57
2021/04/04 01:43:51;;;;;;;5.35;3.45;;;5.20;78.30;;;;;;5055764;28;20393;-56
2021/04/04 01:46:18;;;;;;;6.47;4.05;;;5.10;78.70;;;;;;5074016;28;20028;-58
2021/04/04 01:48:45;;;;;;;5.85;3.40;;;5.00;79.60;;;;;;5055905;28;20048;-56
2021/04/04 01:51:12;;;;;;;8.90;4.20;;;4.90;79.70;;;;;;5055785;28;20033;-56
2021/04/04 01:53:43;;;;;;;8.20;4.43;;;4.90;79.70;;;;;;5073181;28;20031;-56
2021/04/04 01:56:09;;;;;;;7.28;4.38;;;4.90;80.40;;;;;;5073549;28;20025;-55
2021/04/04 01:58:37;;;;;;;9.88;3.97;;;4.90;80.40;;;;;;5055268;28;20371;-56
2021/04/04 02:01:03;;;;;;;7.93;4.20;;;4.90;80.50;;;;;;5073902;28;20028;-58
2021/04/04 02:03:30;;;;;;;8.00;3.75;;;4.90;80.90;;;;;;5073205;28;20103;-58
2021/04/04 02:05:57;;;;;;;10.73;4.53;;;4.80;80.80;;;;;;5073524;28;20016;-55
2021/04/04 02:08:23;;;;;;;6.95;3.60;;;4.90;80.20;;;;;;5073762;28;20389;-58
2021/04/04 02:10:50;;;;;;;8.70;4.32;;;4.90;80.00;;;;;;5073515;28;20020;-55
2021/04/04 02:13:17;;;;;;;7.38;4.22;;;4.90;79.90;;;;;;5071490;28;20094;-54
2021/04/04 02:15:44;;;;;;;6.53;3.97;;;4.90;80.00;;;;;;5055547;28;20025;-53
2021/04/04 02:18:10;;;;;;;7.28;3.85;;;4.90;79.60;;;;;;5061142;28;20482;-53
2021/04/04 02:20:37;;;;;;;10.93;3.90;;;5.00;79.60;;;;;;5061826;28;20429;-49
2021/04/04 02:23:05;;;;;;;11.50;4.32;;;5.10;80.00;;;;;;5065655;28;20044;-56
2021/04/04 02:25:32;;;;;;;7.82;3.90;;;5.20;78.90;;;;;;5071797;28;20048;-49
2021/04/04 02:27:58;;;;;;;10.95;4.15;;;5.20;78.40;;;;;;5072952;28;20103;-52
2021/04/04 02:30:24;;;;;;;12.15;4.38;;;5.20;78.20;;;;;;5072528;28;20051;-48
2021/04/04 02:32:58;;;;;;;7.63;3.65;;;5.30;78.30;;;;;;5072514;28;20025;-48
2021/04/04 02:35:34;;;;;;;5.25;3.47;;;5.20;79.80;;;;;;5072289;28;20116;-49
2021/04/04 02:38:05;;;;;;;6.25;4.35;;;5.00;79.90;;;;;;5055049;28;20018;-52
2021/04/04 02:40:32;;;;;;;13.35;5.75;;;4.90;80.40;;;;;;5072523;28;20028;-50
2021/04/04 02:42:59;;;;;;;5.32;3.70;;;4.80;80.90;;;;;;5070916;28;20127;-52
2021/04/04 02:45:27;;;;;;;7.07;4.05;;;4.70;81.30;;;;;;5072560;28;20048;-54
2021/04/04 02:48:04;;;;;;;7.70;3.78;;;4.70;81.60;;;;;;5052476;28;20032;-55
2021/04/04 02:50:32;;;;;;;7.03;4.22;;;4.60;81.70;;;;;;5072212;28;20093;-48
2021/04/04 02:53:01;;;;;;;11.02;3.95;;;4.50;81.70;;;;;;5070731;28;20047;-52
2021/04/04 02:55:29;;;;;;;9.48;4.03;;;4.60;81.60;;;;;;5072177;28;20032;-54
2021/04/04 02:57:56;;;;;;;7.95;4.05;;;4.50;81.60;;;;;;5072640;28;20059;-53
2021/04/04 03:00:23;;;;;;;8.98;4.40;;;4.40;82.30;;;;;;5062285;28;20046;-46
2021/04/04 03:02:51;;;;;;;9.48;4.57;;;4.30;83.40;;;;;;5071918;28;20051;-48
2021/04/04 03:05:19;;;;;;;9.05;4.57;;;4.40;83.40;;;;;;5054459;28;20109;-47
2021/04/04 03:07:45;;;;;;;7.95;4.82;;;4.50;83.10;;;;;;5071754;28;20387;-53
2021/04/04 03:10:12;;;;;;;10.45;4.05;;;4.60;82.40;;;;;;5071743;28;20028;-56
2021/04/04 03:12:39;;;;;;;7.75;3.78;;;4.70;81.70;;;;;;5071034;28;20028;-47
2021/04/04 03:15:08;;;;;;;10.05;4.20;;;4.70;81.40;;;;;;5071729;28;20063;-51
2021/04/04 03:17:37;;;;;;;13.35;4.53;;;4.60;82.00;;;;;;5071136;28;20443;-52
2021/04/04 03:20:06;;;;;;;8.57;3.92;;;4.60;82.90;;;;;;5071781;28;20032;-53
2021/04/04 03:22:33;;;;;;;8.10;4.07;;;4.50;83.30;;;;;;5071012;28;20107;-51
2021/04/04 03:25:00;;;;;;;5.18;3.95;;;4.50;84.50;;;;;;5071355;28;20036;-49
2021/04/04 03:27:26;;;;;;;8.13;3.72;;;4.40;85.70;;;;;;5053626;28;20509;-52
2021/04/04 03:29:52;;;;;;;6.03;4.18;;;4.40;86.20;;;;;;5071348;28;20032;-49
2021/04/04 03:32:18;;;;;;;8.88;4.18;;;4.30;85.80;;;;;;5071319;28;20042;-51
2021/04/04 03:34:44;;;;;;;13.05;4.32;;;4.30;85.50;;;;;;5052705;28;20028;-51
2021/04/04 03:37:10;;;;;;;10.30;4.07;;;4.30;86.60;;;;;;5070870;28;20145;-49
2021/04/04 03:39:36;;;;;;;9.30;4.35;;;4.20;86.80;;;;;;5071107;28;20060;-52
2021/04/04 03:42:03;;;;;;;12.95;4.65;;;4.20;85.90;;;;;;5071167;28;20035;-52
2021/04/04 03:44:32;;;;;;;11.45;4.35;;;4.20;86.70;;;;;;5052949;28;20097;-53
2021/04/04 03:46:59;;;;;;;10.07;4.47;;;4.10;88.00;;;;;;5070682;28;20020;-50
2021/04/04 03:49:25;;;;;;;11.43;4.93;;;4.10;88.40;;;;;;5070947;28;20083;-53
2021/04/04 03:51:59;;;;;;;5.00;4.00;;;4.00;88.70;;;;;;5052826;28;20039;-51
2021/04/04 03:54:26;;;;;;;11.68;4.43;;;4.00;87.90;;;;;;5069006;28;20031;-51
2021/04/04 03:56:54;;;;;;;8.32;3.97;;;3.90;88.40;;;;;;5053209;28;20119;-51
2021/04/04 03:59:22;;;;;;;6.65;4.28;;;3.80;89.10;;;;;;5070740;28;20051;-48
2021/04/04 04:01:50;;;;;;;5.90;3.97;;;3.80;90.00;;;;;;5071234;28;20025;-53
2021/04/04 04:04:18;;;;;;;10.73;3.95;;;3.70;90.40;;;;;;5070097;28;20226;-51
2021/04/04 04:06:46;;;;;;;12.13;4.30;;;3.60;90.70;;;;;;5050812;28;20079;-50
2021/04/04 04:09:14;;;;;;;11.38;5.47;;;3.60;90.80;;;;;;5060279;28;20062;-52
2021/04/04 04:11:42;;;;;;;8.30;4.25;;;3.50;91.20;;;;;;5070432;28;20024;-49
2021/04/04 04:14:11;;;;;;;9.52;4.18;;;3.50;91.20;;;;;;5071292;28;20020;-55
2021/04/04 04:16:37;;;;;;;11.80;4.72;;;3.50;91.00;;;;;;5072217;28;20085;-54
2021/04/04 04:19:03;;;;;;;14.02;6.05;;;3.50;91.10;;;;;;5071010;28;20020;-51
2021/04/04 04:21:31;;;;;;;11.85;4.85;;;3.50;91.10;;;;;;5070201;28;20097;-50
2021/04/04 04:23:58;;;;;;;8.40;4.72;;;3.50;91.00;;;;;;5069759;28;20043;-48
2021/04/04 04:26:24;;;;;;;11.48;4.00;;;3.50;90.80;;;;;;5070147;28;20389;-50
2021/04/04 04:28:50;;;;;;;9.68;5.28;;;3.50;91.30;;;;;;5043909;28;20111;-48
2021/04/04 04:31:20;;;;;;;8.02;4.10;;;3.50;91.10;;;;;;5032403;28;20151;-52
2021/04/04 04:33:53;;;;;;;6.80;4.28;;;3.50;90.90;;;;;;5065648;28;20086;-53
2021/04/04 04:36:21;;;;;;;12.15;5.90;;;3.50;90.70;;;;;;5070500;28;20078;-49
2021/04/04 04:38:49;;;;;;;11.82;4.93;;;3.50;90.30;;;;;;5070367;28;20104;-50
2021/04/04 04:41:15;;;;;;;12.25;4.63;;;3.50;90.20;;;;;;5052585;28;20035;-52
2021/04/04 04:43:44;;;;;;;11.88;4.88;;;3.50;89.80;;;;;;5069508;28;20020;-56
2021/04/04 04:46:12;;;;;;;8.90;5.13;;;3.50;89.10;;;;;;5052590;28;20021;-51
2021/04/04 04:48:38;;;;;;;8.52;4.18;;;3.50;89.10;;;;;;5050412;28;20017;-51
2021/04/04 04:51:05;;;;;;;6.72;4.05;;;3.40;89.60;;;;;;5050247;28;20035;-52
2021/04/04 04:53:31;;;;;;;13.02;5.30;;;3.40;89.70;;;;;;5049512;28;20208;-48
2021/04/04 04:56:01;;;;;;;10.93;4.80;;;3.30;89.90;;;;;;5032199;28;20025;-49
2021/04/04 04:58:36;;;;;;;11.32;4.35;;;3.30;90.00;;;;;;5051312;28;20394;-51
2021/04/04 05:01:11;;;;;;;9.82;5.57;;;3.30;90.20;;;;;;5050386;28;20025;-48
2021/04/04 05:03:36;;;;;;;14.85;5.05;;;3.40;90.20;;;;;;5049745;28;20033;-47
2021/04/04 05:06:07;;;;;;;11.32;4.05;;;3.40;90.40;;;;;;5031988;28;20017;-50
2021/04/04 05:08:33;;;;;;;12.43;6.38;;;3.50;90.80;;;;;;5050463;28;20021;-46
2021/04/04 05:11:03;;;;;;;6.57;4.65;;;3.50;91.80;;;;;;5050324;28;20122;-51
2021/04/04 05:13:30;;;;;;;9.60;4.50;;;3.50;92.00;;;;;;5049795;28;20013;-51
2021/04/04 05:15:57;;;;;;;7.80;4.53;;;3.60;92.10;;;;;;5050250;28;20110;-45
2021/04/04 05:18:22;;;;;;;7.85;4.63;;;3.60;92.10;;;;;;5050048;28;20021;-47
2021/04/04 05:20:48;;;;;;;14.52;4.57;;;3.70;91.90;;;;;;5051991;28;20100;-48
2021/04/04 05:23:21;;;;;;;11.90;5.45;;;3.80;91.60;;;;;;5051393;28;20108;-47
2021/04/04 05:25:48;;;;;;;9.57;4.60;;;3.80;91.40;;;;;;5052225;28;20032;-48
2021/04/04 05:28:13;;;;;;;14.50;4.47;;;3.90;91.30;;;;;;5070477;28;20268;-50
2021/04/04 05:30:39;;;;;;;10.27;4.50;;;4.00;91.30;;;;;;5070279;28;20068;-48
2021/04/04 05:33:05;;;;;;;7.53;4.65;;;4.10;91.40;;;;;;5069757;28;20051;-52
2021/04/04 05:35:37;;;;;;;6.80;4.13;;;4.20;91.20;;;;;;5070099;28;20455;-52
2021/04/04 05:38:02;;;;;;;12.68;4.32;;;4.30;90.90;;;;;;5069998;28;20021;-49
2021/04/04 05:40:29;;;;;;;8.52;4.53;;;4.50;90.70;;;;;;5069859;28;20070;-53
2021/04/04 05:42:57;;;;;;;6.15;4.05;;;4.70;90.40;;;;;;5069095;28;20016;-53
2021/04/04 05:45:35;;;;;;;14.52;4.90;;;4.80;90.20;;;;;;5069753;28;20028;-51
2021/04/04 05:48:35;;;;;;;12.00;4.93;;;5.10;89.90;;;;;;5069747;28;20082;-54
2021/04/04 05:51:26;;;;;;;9.75;5.55;;;5.40;88.40;;;;;;5069526;28;20025;-52
2021/04/04 05:54:01;;;;;;;7.88;4.32;;;5.80;85.50;;;;;;5069345;28;20031;-52
2021/04/04 05:56:33;;;;;;;5.85;4.53;;;6.10;83.10;;;;;;5069739;28;20032;-52
2021/04/04 05:59:10;;;;;;;8.25;4.72;;;6.40;81.70;;;;;;5069456;28;20480;-50
2021/04/04 06:02:01;;;;;;;8.98;4.32;;;6.70;79.20;;;;;;5069776;28;20024;-48
2021/04/04 06:04:58;;;;;;;10.38;4.18;;;7.00;78.80;;;;;;5068853;28;20024;-50
2021/04/04 06:08:01;;;;;;;7.90;4.53;;;7.20;77.90;;;;;;5069335;28;20486;-48
2021/04/04 06:10:53;;;;;;;13.73;5.30;;;7.40;76.90;;;;;;5051405;28;20032;-53
2021/04/04 06:13:56;;;;;;;13.50;5.18;;;7.60;76.20;;;;;;5068625;28;20390;-53
2021/04/04 06:16:40;;;;;;;7.65;5.38;;;7.90;75.70;;;;;;5038854;28;20406;-47
2021/04/04 06:19:31;;;;;;;11.43;4.75;;;8.10;75.20;;;;;;5072771;28;20023;-51
2021/04/04 06:22:20;;;;;;;11.10;5.78;;;8.30;74.60;;;;;;5061391;28;20618;-52
2021/04/04 06:25:03;;;;;;;7.72;4.95;;;8.40;74.20;;;;;;5052606;28;20475;-54
2021/04/04 06:27:40;;;;;;;10.98;5.22;;;8.70;73.50;;;;;;5052717;28;20036;-55
2021/04/04 06:30:20;;;;;;;8.73;4.88;;;9.00;73.90;;;;;;5052866;28;20029;-52
2021/04/04 06:32:59;;;;;;;13.07;5.65;;;9.50;72.20;;;;;;5034097;28;20090;-50
2021/04/04 06:35:38;;;;;;;8.23;4.88;;;9.90;70.50;;;;;;5052675;28;20413;-51
2021/04/04 06:38:33;;;;;;;13.05;5.43;;;10.20;69.70;;;;;;5052535;28;20104;-50
2021/04/04 06:41:31;;;;;;;10.80;5.65;;;10.10;69.70;;;;;;5052522;28;20498;-52
2021/04/04 06:44:32;;;;;;;15.30;5.82;;;10.00;69.30;;;;;;5051713;28;20043;-50
2021/04/04 06:47:13;;;;;;;10.38;5.90;;;10.10;70.30;;;;;;5071549;28;20021;-54
2021/04/04 06:50:03;;;;;;;8.77;5.55;;;10.50;69.20;;;;;;5072187;28;20060;-50
2021/04/04 06:52:59;;;;;;;14.45;6.15;;;10.90;68.60;;;;;;5071457;28;20028;-48
2021/04/04 06:55:38;;;;;;;9.95;5.45;;;10.90;67.50;;;;;;5054393;28;20326;-46
2021/04/04 06:58:41;;;;;;;16.63;5.82;;;10.90;67.30;;;;;;5071703;28;20028;-49
2021/04/04 07:01:35;;;;;;;11.57;5.95;;;11.30;67.50;;;;;;5070658;28;20390;-53
2021/04/04 07:04:24;;;;;;;8.25;4.85;;;11.90;67.10;;;;;;5053132;28;20024;-53
2021/04/04 07:07:08;;;;;;;16.25;6.55;;;11.90;64.30;;;;;;5071845;28;20016;-51
2021/04/04 07:09:59;;;;;;;13.85;6.65;;;11.80;64.70;;;;;;5071772;28;20371;-50
2021/04/04 07:12:37;;;;;;;17.48;5.70;;;12.00;64.50;;;;;;5053820;28;20020;-52
2021/04/04 07:15:27;;;;;;;15.18;5.72;;;12.30;64.00;;;;;;5052433;28;20032;-53
2021/04/04 07:18:14;;;;;;;12.02;5.53;;;12.50;63.40;;;;;;5070314;28;20017;-54
2021/04/04 07:21:11;;;;;;;14.68;5.57;;;12.80;62.90;;;;;;5071724;28;20025;-54
2021/04/04 07:23:59;;;;;;;13.55;5.53;;;13.20;63.50;;;;;;5032415;28;20120;-54
2021/04/04 07:27:01;;;;;;;12.32;5.82;;;13.40;61.70;;;;;;5051752;28;20514;-55
2021/04/04 07:29:57;;;;;;;14.35;6.18;;;13.40;61.90;;;;;;5051481;28;20017;-53
2021/04/04 07:32:31;;;;;;;14.98;7.03;;;13.20;62.10;;;;;;5041739;28;20043;-55
2021/04/04 07:35:14;;;;;;;15.00;6.13;;;13.50;62.30;;;;;;5057861;28;20047;-55
2021/04/04 07:37:53;;;;;;;20.30;8.07;;;14.00;62.00;;;;;;5066705;28;20056;-53
2021/04/04 07:40:42;;;;;;;10.65;5.65;;;14.50;60.60;;;;;;5052033;28;20017;-54
2021/04/04 07:43:10;;;;;;;21.60;6.97;;;14.80;59.40;;;;;;5033777;28;20029;-54
2021/04/04 07:46:00;;;;;;;15.82;6.72;;;15.10;58.90;;;;;;5051500;28;20028;-56
2021/04/04 07:48:52;;;;;;;18.20;6.13;;;15.70;57.50;;;;;;5054713;28;20025;-52
2021/04/04 07:51:23;;;;;;;14.45;6.07;;;16.40;56.20;;;;;;5071128;28;20146;-54
2021/04/04 07:53:57;;;;;;;12.00;6.78;;;16.90;55.10;;;;;;5070208;28;20048;-53
2021/04/04 07:56:25;;;;;;;16.92;7.32;;;16.50;55.20;;;;;;5052807;28;20062;-52
2021/04/04 07:58:59;;;;;;;16.60;6.55;;;16.20;55.70;;;;;;5070934;28;20029;-55
2021/04/04 08:01:51;;;;;;;19.00;6.82;;;16.40;55.80;;;;;;5053315;28;20547;-52
2021/04/04 08:04:46;;;;;;;21.13;8.40;;;15.80;56.50;;;;;;5051938;28;20117;-56
2021/04/04 08:07:20;;;;;;;16.27;7.35;;;16.30;55.60;;;;;;5070144;28;20437;-55
2021/04/04 08:09:52;;;;;;;27.70;6.75;;;16.80;54.80;;;;;;5063280;28;20025;-56
2021/04/04 08:12:55;;;;;;;18.10;7.43;;;16.80;54.50;;;;;;5070755;28;20059;-56
2021/04/04 08:15:24;;;;;;;19.42;7.40;;;17.00;54.10;;;;;;5069992;28;20024;-55
2021/04/04 08:17:50;;;;;;;21.00;7.20;;;16.90;53.90;;;;;;5051152;28;20032;-56
2021/04/04 08:20:31;;;;;;;17.02;6.68;;;17.30;53.70;;;;;;5065472;28;20666;-52
2021/04/04 08:23:04;;;;;;;14.25;6.35;;;17.90;52.70;;;;;;5059378;28;20029;-50
2021/04/04 08:25:45;;;;;;;19.80;6.90;;;17.70;52.00;;;;;;5066964;28;20116;-51
2021/04/04 08:28:18;;;;;;;14.73;7.35;;;17.80;51.70;;;;;;5070786;28;20035;-49
2021/04/04 08:30:53;;;;;;;17.52;7.00;;;18.10;52.00;;;;;;5070619;28;20059;-50
2021/04/04 08:33:40;;;;;;;23.92;7.85;;;18.60;50.70;;;;;;5070326;28;20038;-52
2021/04/04 08:36:07;;;;;;;12.98;6.78;;;18.80;50.50;;;;;;5072744;28;20047;-47
2021/04/04 08:38:41;;;;;;;17.08;7.50;;;18.20;51.10;;;;;;5070436;28;20036;-46
2021/04/04 08:41:08;;;;;;;15.43;7.40;;;18.20;51.00;;;;;;5069738;28;20016;-48
2021/04/04 08:43:35;;;;;;;18.52;6.85;;;18.40;51.00;;;;;;5069660;28;20036;-47
2021/04/04 08:46:11;;;;;;;15.70;7.22;;;18.90;50.30;;;;;;5070423;28;20025;-48
2021/04/04 08:48:39;;;;;;;17.52;6.95;;;19.60;48.10;;;;;;5070219;28;20060;-49
2021/04/04 08:51:11;;;;;;;19.02;9.10;;;19.50;48.20;;;;;;5070571;28;20079;-51
2021/04/04 08:53:41;;;;;;;15.88;7.65;;;19.60;47.90;;;;;;5052224;28;20425;-49
2021/04/04 08:56:08;;;;;;;22.67;7.57;;;19.80;47.80;;;;;;5070429;28;20082;-47
2021/04/04 08:58:38;;;;;;;21.25;7.55;;;20.40;46.60;;;;;;5070071;28;20452;-46
2021/04/04 09:01:09;;;;;;;16.55;7.00;;;20.90;45.90;;;;;;5070077;28;20017;-51
2021/04/04 09:03:37;;;;;;;18.02;7.18;;;21.20;45.30;;;;;;5069360;28;20021;-49
2021/04/04 09:06:05;;;;;;;21.63;7.78;;;21.80;44.70;;;;;;5052205;28;20497;-49
2021/04/04 09:08:32;;;;;;;19.02;7.10;;;22.20;43.80;;;;;;5070523;28;20058;-46
2021/04/04 09:10:59;;;;;;;17.75;7.65;;;22.00;43.70;;;;;;5052222;28;20020;-48
2021/04/04 09:13:29;;;;;;;15.98;6.85;;;22.60;43.40;;;;;;5050939;28;20036;-47
2021/04/04 09:15:57;;;;;;;17.10;6.50;;;22.50;43.10;;;;;;5050171;28;20025;-48
2021/04/04 09:18:24;;;;;;;16.65;7.82;;;22.70;42.60;;;;;;5068629;28;20064;-47
2021/04/04 09:20:51;;;;;;;21.83;7.07;;;22.30;42.40;;;;;;5069992;28;20044;-46
2021/04/04 09:23:20;;;;;;;16.98;7.28;;;21.70;43.00;;;;;;5069005;28;20547;-46
2021/04/04 09:25:52;;;;;;;13.45;6.72;;;21.50;44.20;;;;;;5068985;28;20032;-49
2021/04/04 09:28:19;;;;;;;13.52;6.47;;;20.80;44.30;;;;;;5069941;28;20024;-47
2021/04/04 09:30:46;;;;;;;17.52;7.47;;;20.60;44.90;;;;;;5070030;28;20489;-47
2021/04/04 09:33:14;;;;;;;21.48;8.65;;;20.30;45.70;;;;;;5069293;28;20375;-46
2021/04/04 09:35:41;;;;;;;14.50;7.80;;;19.80;45.90;;;;;;5069882;28;20035;-47
2021/04/04 09:38:11;;;;;;;21.25;8.20;;;18.90;46.70;;;;;;5069790;28;20070;-49
2021/04/04 09:40:40;;;;;;;26.40;7.97;;;18.20;48.60;;;;;;5069961;28;20032;-46
2021/04/04 09:43:09;;;;;;;27.38;8.13;;;17.40;49.90;;;;;;5069070;28;20029;-47
2021/04/04 09:45:36;;;;;;;28.02;9.68;;;16.50;51.50;;;;;;5069295;28;20031;-48
2021/04/04 09:48:17;;;;;;;18.92;9.02;;;15.90;53.20;;;;;;5069953;28;20068;-48
2021/04/04 09:50:42;;;;;;;20.13;8.65;;;15.90;54.00;;;;;;5067743;28;20402;-46
2021/04/04 09:53:08;;;;;;;15.45;7.57;;;16.00;54.60;;;;;;5052765;28;20025;-48
2021/04/04 09:55:33;;;;;;;21.50;8.73;;;16.40;52.80;;;;;;5062293;28;20302;-45
2021/04/04 09:58:01;;;;;;;20.88;8.05;;;16.80;53.80;;;;;;5073477;28;20036;-44
2021/04/04 10:00:31;;;;;;;23.48;7.80;;;16.90;53.20;;;;;;5057846;28;20035;-43
2021/04/04 10:03:07;;;;;;;24.02;8.02;;;17.30;52.30;;;;;;5054787;28;20032;-45
2021/04/04 10:05:38;;;;;;;20.00;9.05;;;17.50;51.40;;;;;;5072471;28;20035;-47
2021/04/04 10:08:14;;;;;;;20.48;8.52;;;17.60;51.20;;;;;;5071902;28;20320;-43
2021/04/04 10:10:51;;;;;;;19.85;9.43;;;17.90;51.40;;;;;;5071828;28;20103;-42
2021/04/04 10:13:24;;;;;;;18.20;7.97;;;17.30;51.80;;;;;;5071873;28;20024;-46
2021/04/04 10:15:50;;;;;;;17.50;8.23;;;16.80;53.20;;;;;;5072166;28;20050;-46
2021/04/04 10:18:18;;;;;;;22.08;8.48;;;16.80;52.90;;;;;;5073092;28;20025;-43
2021/04/04 10:20:46;;;;;;;22.00;8.90;;;16.50;52.60;;;;;;5072142;28;20027;-45
2021/04/04 10:23:12;;;;;;;31.58;10.40;;;16.00;52.90;;;;;;5072158;28;20386;-43
2021/04/04 10:25:55;;;;;;;26.50;9.63;;;15.70;54.50;;;;;;5072827;28;20020;-43
2021/04/04 10:28:21;;;;;;;34.33;9.60;;;15.50;54.60;;;;;;5072874;28;20029;-43
2021/04/04 10:30:55;;;;;;;22.40;9.20;;;15.20;55.70;;;;;;5072124;28;20025;-45
2021/04/04 10:33:25;;;;;;;21.08;8.25;;;14.80;56.50;;;;;;5072079;28;20601;-46
2021/04/04 10:35:53;;;;;;;18.65;8.32;;;15.00;56.30;;;;;;5072780;28;20107;-44
2021/04/04 10:38:22;;;;;;;23.13;9.43;;;15.30;55.20;;;;;;5054871;28;20501;-45
2021/04/04 10:40:49;;;;;;;19.13;9.43;;;15.30;54.70;;;;;;5072805;28;20477;-45
2021/04/04 10:43:17;;;;;;;15.93;7.97;;;15.30;53.50;;;;;;5072007;28;20032;-48
2021/04/04 10:45:59;;;;;;;19.02;9.65;;;15.40;54.80;;;;;;5072673;28;20386;-48
2021/04/04 10:48:25;;;;;;;21.30;9.02;;;15.20;54.50;;;;;;5072540;28;20035;-43
2021/04/04 10:50:51;;;;;;;20.73;8.35;;;15.10;54.20;;;;;;5072427;28;20031;-44
2021/04/04 10:53:18;;;;;;;20.60;8.85;;;15.00;54.80;;;;;;5071607;28;20029;-47
2021/04/04 10:55:45;;;;;;;20.75;10.38;;;14.80;54.70;;;;;;5072569;28;20031;-44
2021/04/04 10:58:13;;;;;;;24.42;8.77;;;14.60;56.60;;;;;;5104452;22;20040;-45
2021/04/04 11:00:39;;;;;;;18.70;8.93;;;14.00;57.40;;;;;;5113361;28;20388;-43
2021/04/04 11:03:05;;;;;;;16.50;9.13;;;13.70;57.50;;;;;;5112337;28;20020;-42
2021/04/04 11:05:32;;;;;;;21.92;9.45;;;13.60;58.90;;;;;;5113060;28;20100;-47
2021/04/04 11:07:58;;;;;;;22.55;9.48;;;13.70;58.10;;;;;;5113039;28;20046;-44
2021/04/04 11:10:23;;;;;;;25.17;11.63;;;13.70;58.40;;;;;;5095252;28;20031;-48
2021/04/04 11:12:50;;;;;;;17.05;9.05;;;13.50;58.70;;;;;;5112335;28;20039;-47
2021/04/04 11:15:17;;;;;;;19.02;9.18;;;13.50;58.50;;;;;;5094918;28;20081;-44
2021/04/04 11:17:46;;;;;;;17.45;8.98;;;13.50;58.90;;;;;;5111249;28;20031;-46
2021/04/04 11:20:17;;;;;;;19.48;8.82;;;13.60;58.00;;;;;;5112292;28;20393;-44
2021/04/04 11:22:43;;;;;;;18.77;9.32;;;13.70;58.60;;;;;;5111701;28;20027;-42
2021/04/04 11:25:10;;;;;;;24.65;9.77;;;13.80;58.60;;;;;;5114083;28;20035;-44
2021/04/04 11:27:43;;;;;;;20.45;9.77;;;13.90;59.00;;;;;;5114001;28;20496;-43
2021/04/04 11:30:13;;;;;;;18.95;8.77;;;14.00;59.00;;;;;;5112869;28;20027;-45
2021/04/04 11:32:40;;;;;;;22.58;8.57;;;14.10;58.40;;;;;;5112809;28;20480;-48
2021/04/04 11:35:06;;;;;;;22.95;9.15;;;14.20;57.80;;;;;;5113546;28;20030;-50
2021/04/04 11:37:32;;;;;;;21.08;8.27;;;14.30;57.20;;;;;;5113526;28;20023;-49
2021/04/04 11:40:11;;;;;;;21.70;8.43;;;14.30;57.60;;;;;;5113903;28;20016;-51
2021/04/04 11:42:37;;;;;;;23.50;9.65;;;14.20;57.40;;;;;;5112549;28;20545;-43
2021/04/04 11:45:03;;;;;;;25.15;8.80;;;14.20;57.50;;;;;;5112362;28;20023;-43
2021/04/04 11:47:29;;;;;;;29.05;7.70;;;14.00;57.80;;;;;;5112994;28;20027;-43
2021/04/04 11:49:56;;;;;;;19.02;8.90;;;14.00;58.70;;;;;;5094921;28;20119;-45
2021/04/04 11:52:22;;;;;;;18.80;8.95;;;13.80;58.40;;;;;;5112698;28;20031;-41
2021/04/04 11:54:50;;;;;;;22.63;9.13;;;13.80;58.60;;;;;;5112650;28;20072;-46
2021/04/04 11:57:30;;;;;;;22.25;8.93;;;13.90;59.30;;;;;;5094997;28;20024;-43
2021/04/04 12:00:20;;;;;;;22.95;8.98;;;13.90;58.70;;;;;;5112675;28;20035;-42
2021/04/04 12:02:53;;;;;;;26.50;9.77;;;13.60;58.40;;;;;;5111951;28;20055;-41
2021/04/04 12:05:19;;;;;;;18.80;8.90;;;13.70;58.60;;;;;;5113146;28;20027;-45
2021/04/04 12:07:55;;;;;;;25.27;8.25;;;13.50;58.50;;;;;;5113076;28;20020;-47
2021/04/04 12:10:27;;;;;;;18.55;7.80;;;13.20;58.60;;;;;;5093617;28;20019;-42
2021/04/04 12:12:54;;;;;;;19.08;10.00;;;13.10;59.80;;;;;;5111025;28;20035;-41
2021/04/04 12:15:21;;;;;;;17.58;9.05;;;12.80;59.70;;;;;;5110024;28;20035;-38
2021/04/04 12:17:49;;;;;;;18.10;8.57;;;12.70;60.50;;;;;;5111129;28;20031;-45
2021/04/04 12:20:18;;;;;;;18.20;8.27;;;12.60;61.10;;;;;;5111640;28;20023;-42
2021/04/04 12:22:45;;;;;;;20.83;8.48;;;12.80;62.70;;;;;;5110758;28;20401;-42
2021/04/04 12:25:27;;;;;;;24.05;9.77;;;13.00;61.30;;;;;;5111227;28;20388;-46
2021/04/04 12:27:56;;;;;;;26.67;9.45;;;13.10;60.70;;;;;;5093011;28;20109;-43
2021/04/04 12:30:40;;;;;;;20.15;8.13;;;13.10;61.10;;;;;;5111345;28;20165;-45
2021/04/04 12:33:17;;;;;;;16.63;8.05;;;13.40;61.10;;;;;;5110632;28;20019;-47
2021/04/04 12:35:45;;;;;;;17.17;8.45;;;13.50;59.80;;;;;;5111489;28;20102;-42
2021/04/04 12:38:27;;;;;;;23.05;9.77;;;13.70;60.40;;;;;;5110919;28;20022;-43
2021/04/04 12:40:55;;;;;;;22.70;9.13;;;13.80;60.20;;;;;;5112121;28;20468;-42
2021/04/04 12:43:21;;;;;;;21.77;9.68;;;13.90;60.10;;;;;;5111037;28;20115;-44
2021/04/04 12:45:46;;;;;;;19.55;9.68;;;13.90;58.80;;;;;;5111342;28;20024;-42
2021/04/04 12:48:17;;;;;;;25.83;9.77;;;13.70;60.50;;;;;;5111488;28;20024;-45
2021/04/04 12:50:51;;;;;;;26.27;9.20;;;13.40;59.70;;;;;;5110952;28;20148;-45
2021/04/04 12:53:29;;;;;;;23.33;9.30;;;13.20;60.20;;;;;;5110881;28;20119;-46
2021/04/04 12:55:56;;;;;;;24.20;10.40;;;13.10;60.40;;;;;;5111240;28;20055;-43
2021/04/04 12:58:29;;;;;;;30.23;9.68;;;12.80;61.80;;;;;;5110895;28;20027;-47
2021/04/04 13:00:54;;;;;;;21.58;9.63;;;12.70;63.60;;;;;;5111666;28;20058;-45
2021/04/04 13:03:20;;;;;;;19.30;9.98;;;12.70;63.60;;;;;;5110287;28;20504;-44
2021/04/04 13:05:52;;;;;;;23.55;10.15;;;12.90;62.30;;;;;;5111026;28;20097;-44
2021/04/04 13:08:19;;;;;;;24.45;9.93;;;13.00;61.70;;;;;;5092704;28;20028;-47
2021/04/04 13:10:59;;;;;;;23.90;10.52;;;13.20;61.50;;;;;;5111853;28;20484;-46